Flight Track Log - Related Links

Times and Time Zones

All times are in EDT time to prevent confusion due to time zone crossing. See the IRO7591 flight status page for this flight to view local times or setup timezone preferences in your user account.

Time Position Orientation Groundspeed Altitude Reporting Facility
EDT Latitude Longitude Course Direction KTS MPH feet Rate Location/Type
Fri 08:22:35 PM 44.7172 -85.5864 172° South 95 109 1,400  Level Minneapolis Center
Fri 08:23:37 PM 44.6886 -85.5808 172° South 102 117 2,100 774 Climbing Minneapolis Center
Fri 08:24:39 PM 44.6600 -85.5794 178° South 102 117 3,000 823 Climbing Minneapolis Center
Fri 08:25:41 PM 44.6336 -85.5808 182° South 102 117 3,800 726 Climbing Minneapolis Center
Fri 08:26:43 PM 44.6053 -85.5803 179° South 102 117 4,500 629 Climbing Minneapolis Center
Fri 08:27:45 PM 44.5739 -85.5778 177° South 106 122 5,100 672 Climbing Minneapolis Center
Fri 08:28:48 PM 44.5361 -85.5761 178° South 110 127 5,900 672 Climbing Minneapolis Center
Fri 08:29:50 PM 44.5050 -85.5742 177° South 110 127 6,500 532 Climbing Minneapolis Center
Fri 08:30:52 PM 44.4725 -85.5728 178° South 112 129 7,000 290 Climbing Minneapolis Center
Fri 08:31:54 PM 44.4364 -85.5722 179° South 123 142 7,100 290 Climbing Minneapolis Center
Fri 08:32:56 PM 44.3972 -85.5711 179° South 135 155 7,600 484 Climbing Minneapolis Center
Fri 08:33:58 PM 44.3603 -85.5697 178° South 135 155 8,100 532 Climbing Minneapolis Center
Fri 08:35:00 PM 44.3128 -85.5669 178° South 139 160 8,700 532 Climbing Minneapolis Center
Fri 08:36:02 PM 44.2714 -85.5653 178° South 145 167 9,200 484 Climbing Minneapolis Center
Fri 08:37:04 PM 44.2286 -85.5644 179° South 149 171 9,700 384 Climbing Minneapolis Center
Fri 08:38:07 PM 44.1869 -85.5619 178° South 149 171 10,000 144 Climbing Minneapolis Center
Fri 08:39:09 PM 44.1408 -85.5600 178° South 160 184 10,000  Level Minneapolis Center
Fri 08:40:11 PM 44.0928 -85.5600 180° South 167 192 10,000  Level Minneapolis Center
Fri 08:41:13 PM 44.0375 -85.5586 179° South 169 194 10,000  Level Minneapolis Center
Fri 08:42:15 PM 43.9889 -85.5564 178° South 170 196 10,000  Level Minneapolis Center
Fri 08:43:17 PM 43.9406 -85.5553 179° South 172 198 10,000  Level Minneapolis Center
Fri 08:44:19 PM 43.8928 -85.5525 178° South 172 198 10,000  Level Minneapolis Center
Fri 08:45:21 PM 43.8453 -85.5519 180° South 172 198 10,000  Level Minneapolis Center
Fri 08:46:23 PM 43.7869 -85.5500 179° South 172 198 10,000  Level Minneapolis Center
Fri 08:47:25 PM 43.7392 -85.5486 179° South 172 198 10,000  Level Minneapolis Center
Fri 08:48:28 PM 43.6906 -85.5472 179° South 172 198 10,000  Level Minneapolis Center
Fri 08:49:30 PM 43.6428 -85.5450 178° South 172 198 10,000  Level Minneapolis Center
Fri 08:50:25 PM 43.5953 -85.5447 180° South 173 199 10,000  Level Chicago Center
Fri 08:51:27 PM 43.5458 -85.5436 179° South 174 200 10,000 -194 Level Chicago Center
Fri 08:52:29 PM 43.4950 -85.5442 180° South 181 208 9,600 -484 Descending Chicago Center
Fri 08:53:31 PM 43.4442 -85.5419 178° South 181 208 9,000 -532 Descending Chicago Center
Fri 08:54:33 PM 43.3922 -85.5392 178° South 184 212 8,500 -581 Descending Chicago Center
Fri 08:55:35 PM 43.3336 -85.5378 179° South 180 207 7,800 -629 Descending Chicago Center
Fri 08:56:37 PM 43.2875 -85.5344 177° South 170 196 7,200 -581 Descending Chicago Center
Fri 08:57:39 PM 43.2439 -85.5342 180° South 162 186 6,600 -581 Descending Chicago Center
Fri 08:58:41 PM 43.2019 -85.5319 178° South 155 178 6,000 -532 Descending Chicago Center
Fri 08:59:43 PM 43.1594 -85.5308 179° South 153 176 5,500 -532 Descending Chicago Center
Fri 09:00:45 PM 43.1186 -85.5297 179° South 151 174 4,900 -581 Descending Chicago Center
Fri 09:01:47 PM 43.0783 -85.5342 185° South 148 170 4,300 -677 Descending Chicago Center
Fri 09:02:49 PM 43.0278 -85.5378 183° South 148 170 3,500 -677 Descending Chicago Center
Fri 09:03:51 PM 42.9856 -85.5392 181° South 151 174 2,900 -677 Descending Chicago Center
Fri 09:04:53 PM 42.9447 -85.5311 172° South 151 174 2,100 -823 Descending Chicago Center
Fri 09:05:55 PM 42.9067 -85.5222 170° South 145 167 1,200 -585 Descending Chicago Center
Fri 09:06:56 PM 42.8742 -85.5158 172° South 141 162 900 -295 Descending Chicago Center

Login

Don't have an account? Register now (free) for customized features, flight alerts, and more!